sensor_id;sensor_type;location;lat;lon;timestamp;temperature;humidity
1447;DHT22;717;51.522;7.266;2024-03-07T00:02:00;12.30;99.90
1447;DHT22;717;51.522;7.266;2024-03-07T00:04:30;12.30;99.90
1447;DHT22;717;51.522;7.266;2024-03-07T00:07:03;12.30;99.90
1447;DHT22;717;51.522;7.266;2024-03-07T00:09:34;12.30;99.90
1447;DHT22;717;51.522;7.266;2024-03-07T00:12:05;12.20;99.90
1447;DHT22;717;51.522;7.266;2024-03-07T00:14:35;12.30;99.90
1447;DHT22;717;51.522;7.266;2024-03-07T00:17:05;12.30;99.90
1447;DHT22;717;51.522;7.266;2024-03-07T00:19:35;12.30;99.90
1447;DHT22;717;51.522;7.266;2024-03-07T00:22:09;12.30;99.90
1447;DHT22;717;51.522;7.266;2024-03-07T00:24:39;12.20;99.90
1447;DHT22;717;51.522;7.266;2024-03-07T00:27:10;12.20;99.90
1447;DHT22;717;51.522;7.266;2024-03-07T00:29:41;12.20;99.90
1447;DHT22;717;51.522;7.266;2024-03-07T00:32:13;12.20;99.90
1447;DHT22;717;51.522;7.266;2024-03-07T00:34:43;12.20;99.90
1447;DHT22;717;51.522;7.266;2024-03-07T00:37:16;12.10;99.90
1447;DHT22;717;51.522;7.266;2024-03-07T00:39:46;12.20;99.90
1447;DHT22;717;51.522;7.266;2024-03-07T00:42:16;12.20;99.90
1447;DHT22;717;51.522;7.266;2024-03-07T00:44:46;12.20;99.90
1447;DHT22;717;51.522;7.266;2024-03-07T00:47:16;12.10;99.90
1447;DHT22;717;51.522;7.266;2024-03-07T00:49:47;12.10;99.90
1447;DHT22;717;51.522;7.266;2024-03-07T00:52:20;12.10;99.90
1447;DHT22;717;51.522;7.266;2024-03-07T00:54:50;12.10;99.90
1447;DHT22;717;51.522;7.266;2024-03-07T00:57:20;12.10;99.90
1447;DHT22;717;51.522;7.266;2024-03-07T00:59:50;12.10;99.90
1447;DHT22;717;51.522;7.266;2024-03-07T01:02:20;12.10;99.90
1447;DHT22;717;51.522;7.266;2024-03-07T01:04:52;12.10;99.90
1447;DHT22;717;51.522;7.266;2024-03-07T01:07:24;12.00;99.90
1447;DHT22;717;51.522;7.266;2024-03-07T01:09:55;12.00;99.90
1447;DHT22;717;51.522;7.266;2024-03-07T01:12:28;12.00;99.90
1447;DHT22;717;51.522;7.266;2024-03-07T01:15:02;12.00;99.90
1447;DHT22;717;51.522;7.266;2024-03-07T01:17:33;12.00;99.90
1447;DHT22;717;51.522;7.266;2024-03-07T01:20:03;12.00;99.90
1447;DHT22;717;51.522;7.266;2024-03-07T01:22:36;11.90;99.90
1447;DHT22;717;51.522;7.266;2024-03-07T01:25:06;11.90;99.90
1447;DHT22;717;51.522;7.266;2024-03-07T01:27:36;11.90;99.90
1447;DHT22;717;51.522;7.266;2024-03-07T01:30:07;11.90;99.90
1447;DHT22;717;51.522;7.266;2024-03-07T01:32:37;11.90;99.90
1447;DHT22;717;51.522;7.266;2024-03-07T01:35:08;11.90;99.90
1447;DHT22;717;51.522;7.266;2024-03-07T01:37:40;11.90;99.90
1447;DHT22;717;51.522;7.266;2024-03-07T01:40:12;11.80;99.90
1447;DHT22;717;51.522;7.266;2024-03-07T01:42:42;11.80;99.90
1447;DHT22;717;51.522;7.266;2024-03-07T01:45:12;11.80;99.90
1447;DHT22;717;51.522;7.266;2024-03-07T01:47:42;11.80;99.90
1447;DHT22;717;51.522;7.266;2024-03-07T01:50:12;11.80;99.90
1447;DHT22;717;51.522;7.266;2024-03-07T01:52:45;11.80;99.90
1447;DHT22;717;51.522;7.266;2024-03-07T01:55:15;11.80;99.90
1447;DHT22;717;51.522;7.266;2024-03-07T01:57:45;11.80;99.90
1447;DHT22;717;51.522;7.266;2024-03-07T02:00:16;11.70;99.90
1447;DHT22;717;51.522;7.266;2024-03-07T02:02:46;11.70;99.90
1447;DHT22;717;51.522;7.266;2024-03-07T02:05:16;11.70;99.90
1447;DHT22;717;51.522;7.266;2024-03-07T02:07:49;11.70;99.90
1447;DHT22;717;51.522;7.266;2024-03-07T02:10:19;11.70;99.90
1447;DHT22;717;51.522;7.266;2024-03-07T02:12:47;11.70;99.90
1447;DHT22;717;51.522;7.266;2024-03-07T02:15:17;11.70;99.90
1447;DHT22;717;51.522;7.266;2024-03-07T02:17:47;11.70;99.90
1447;DHT22;717;51.522;7.266;2024-03-07T02:20:17;11.70;99.90
1447;DHT22;717;51.522;7.266;2024-03-07T02:22:50;11.70;99.90
1447;DHT22;717;51.522;7.266;2024-03-07T02:25:20;11.70;99.90
1447;DHT22;717;51.522;7.266;2024-03-07T02:27:50;11.70;99.90
1447;DHT22;717;51.522;7.266;2024-03-07T02:30:20;11.70;99.90
1447;DHT22;717;51.522;7.266;2024-03-07T02:32:50;11.60;99.90
1447;DHT22;717;51.522;7.266;2024-03-07T02:35:22;11.60;99.90
1447;DHT22;717;51.522;7.266;2024-03-07T02:37:55;11.60;99.90
1447;DHT22;717;51.522;7.266;2024-03-07T02:40:25;11.60;99.90
1447;DHT22;717;51.522;7.266;2024-03-07T02:42:55;11.60;99.90
1447;DHT22;717;51.522;7.266;2024-03-07T02:45:25;11.60;99.90
1447;DHT22;717;51.522;7.266;2024-03-07T02:47:55;11.60;99.90
1447;DHT22;717;51.522;7.266;2024-03-07T02:50:25;11.60;99.90
1447;DHT22;717;51.522;7.266;2024-03-07T02:52:58;11.50;99.90
1447;DHT22;717;51.522;7.266;2024-03-07T02:55:31;11.60;99.90
1447;DHT22;717;51.522;7.266;2024-03-07T02:58:01;11.60;99.90
1447;DHT22;717;51.522;7.266;2024-03-07T03:00:31;11.50;99.90
1447;DHT22;717;51.522;7.266;2024-03-07T03:03:02;11.50;99.90
1447;DHT22;717;51.522;7.266;2024-03-07T03:05:31;11.50;99.90
1447;DHT22;717;51.522;7.266;2024-03-07T03:08:05;11.50;99.90
1447;DHT22;717;51.522;7.266;2024-03-07T03:10:35;11.50;99.90
1447;DHT22;717;51.522;7.266;2024-03-07T03:13:03;11.50;99.90
1447;DHT22;717;51.522;7.266;2024-03-07T03:15:33;11.50;99.90
1447;DHT22;717;51.522;7.266;2024-03-07T03:18:04;11.50;99.90
1447;DHT22;717;51.522;7.266;2024-03-07T03:20:35;11.50;99.90
1447;DHT22;717;51.522;7.266;2024-03-07T03:23:09;11.50;99.90
1447;DHT22;717;51.522;7.266;2024-03-07T03:25:48;11.50;99.90
1447;DHT22;717;51.522;7.266;2024-03-07T03:28:18;11.50;99.90
1447;DHT22;717;51.522;7.266;2024-03-07T03:30:49;11.50;99.90
1447;DHT22;717;51.522;7.266;2024-03-07T03:33:20;11.40;99.90
1447;DHT22;717;51.522;7.266;2024-03-07T03:35:50;11.40;99.90
1447;DHT22;717;51.522;7.266;2024-03-07T03:38:25;11.40;99.90
1447;DHT22;717;51.522;7.266;2024-03-07T03:40:55;11.40;99.90
1447;DHT22;717;51.522;7.266;2024-03-07T03:43:25;11.40;99.90
1447;DHT22;717;51.522;7.266;2024-03-07T03:45:57;11.40;99.90
1447;DHT22;717;51.522;7.266;2024-03-07T03:48:29;11.40;99.90
1447;DHT22;717;51.522;7.266;2024-03-07T03:51:00;11.40;99.90
1447;DHT22;717;51.522;7.266;2024-03-07T03:53:33;11.40;99.90
1447;DHT22;717;51.522;7.266;2024-03-07T03:56:04;11.30;99.90
1447;DHT22;717;51.522;7.266;2024-03-07T03:58:34;11.30;99.90
1447;DHT22;717;51.522;7.266;2024-03-07T04:01:04;11.30;99.90
1447;DHT22;717;51.522;7.266;2024-03-07T04:03:36;11.30;99.90
1447;DHT22;717;51.522;7.266;2024-03-07T04:06:06;11.30;99.90
1447;DHT22;717;51.522;7.266;2024-03-07T04:08:39;11.30;99.90
1447;DHT22;717;51.522;7.266;2024-03-07T04:11:09;11.30;99.90
1447;DHT22;717;51.522;7.266;2024-03-07T04:13:39;11.30;99.90
1447;DHT22;717;51.522;7.266;2024-03-07T04:16:09;11.20;99.90
1447;DHT22;717;51.522;7.266;2024-03-07T04:18:40;11.20;99.90
1447;DHT22;717;51.522;7.266;2024-03-07T04:21:10;11.20;99.90
1447;DHT22;717;51.522;7.266;2024-03-07T04:23:42;11.20;99.90
1447;DHT22;717;51.522;7.266;2024-03-07T04:26:13;11.20;99.90
1447;DHT22;717;51.522;7.266;2024-03-07T04:28:43;11.20;99.90
1447;DHT22;717;51.522;7.266;2024-03-07T04:31:15;11.20;99.90
1447;DHT22;717;51.522;7.266;2024-03-07T04:33:45;11.20;99.90
1447;DHT22;717;51.522;7.266;2024-03-07T04:36:15;11.20;99.90
1447;DHT22;717;51.522;7.266;2024-03-07T04:38:48;11.20;99.90
1447;DHT22;717;51.522;7.266;2024-03-07T04:41:18;11.10;99.90
1447;DHT22;717;51.522;7.266;2024-03-07T04:43:48;11.10;99.90
1447;DHT22;717;51.522;7.266;2024-03-07T04:46:18;11.10;99.90
1447;DHT22;717;51.522;7.266;2024-03-07T04:48:48;11.10;99.90
1447;DHT22;717;51.522;7.266;2024-03-07T04:51:18;11.10;99.90
1447;DHT22;717;51.522;7.266;2024-03-07T04:53:51;11.10;99.90
1447;DHT22;717;51.522;7.266;2024-03-07T04:56:21;11.00;99.90
1447;DHT22;717;51.522;7.266;2024-03-07T04:58:51;11.00;99.90
1447;DHT22;717;51.522;7.266;2024-03-07T05:01:21;11.00;99.90
1447;DHT22;717;51.522;7.266;2024-03-07T05:03:52;11.00;99.90
1447;DHT22;717;51.522;7.266;2024-03-07T05:06:22;11.00;99.90
1447;DHT22;717;51.522;7.266;2024-03-07T05:08:54;11.00;99.90
1447;DHT22;717;51.522;7.266;2024-03-07T05:11:25;10.90;99.90
1447;DHT22;717;51.522;7.266;2024-03-07T05:13:55;11.00;99.90
1447;DHT22;717;51.522;7.266;2024-03-07T05:16:25;10.90;99.90
1447;DHT22;717;51.522;7.266;2024-03-07T05:18:55;10.90;99.90
1447;DHT22;717;51.522;7.266;2024-03-07T05:21:26;10.90;99.90
1447;DHT22;717;51.522;7.266;2024-03-07T05:24:05;10.90;99.90
1447;DHT22;717;51.522;7.266;2024-03-07T05:26:35;10.90;99.90
1447;DHT22;717;51.522;7.266;2024-03-07T05:29:08;10.90;99.90
1447;DHT22;717;51.522;7.266;2024-03-07T05:31:39;10.90;99.90
1447;DHT22;717;51.522;7.266;2024-03-07T05:34:14;10.80;99.90
1447;DHT22;717;51.522;7.266;2024-03-07T05:36:46;10.80;99.90
1447;DHT22;717;51.522;7.266;2024-03-07T05:39:19;10.80;99.90
1447;DHT22;717;51.522;7.266;2024-03-07T05:41:51;10.80;99.90
1447;DHT22;717;51.522;7.266;2024-03-07T05:44:25;10.80;99.90
1447;DHT22;717;51.522;7.266;2024-03-07T05:46:55;10.80;99.90
1447;DHT22;717;51.522;7.266;2024-03-07T05:49:25;10.80;99.90
1447;DHT22;717;51.522;7.266;2024-03-07T05:51:58;10.70;99.90
1447;DHT22;717;51.522;7.266;2024-03-07T05:54:31;10.70;99.90
1447;DHT22;717;51.522;7.266;2024-03-07T05:57:01;10.70;99.90
1447;DHT22;717;51.522;7.266;2024-03-07T05:59:33;10.70;99.90
1447;DHT22;717;51.522;7.266;2024-03-07T06:02:03;10.70;99.90
1447;DHT22;717;51.522;7.266;2024-03-07T06:04:33;10.70;99.90
1447;DHT22;717;51.522;7.266;2024-03-07T06:07:04;10.70;99.90
1447;DHT22;717;51.522;7.266;2024-03-07T06:09:36;10.60;99.90
1447;DHT22;717;51.522;7.266;2024-03-07T06:12:07;10.60;99.90
1447;DHT22;717;51.522;7.266;2024-03-07T06:14:49;10.60;99.90
1447;DHT22;717;51.522;7.266;2024-03-07T06:17:19;10.60;99.90
1447;DHT22;717;51.522;7.266;2024-03-07T06:19:50;10.60;99.90
1447;DHT22;717;51.522;7.266;2024-03-07T06:22:20;10.60;99.90
1447;DHT22;717;51.522;7.266;2024-03-07T06:24:53;10.60;99.90
1447;DHT22;717;51.522;7.266;2024-03-07T06:27:23;10.60;99.90
1447;DHT22;717;51.522;7.266;2024-03-07T06:30:05;10.60;99.90
1447;DHT22;717;51.522;7.266;2024-03-07T06:32:36;10.50;99.90
1447;DHT22;717;51.522;7.266;2024-03-07T06:35:07;10.50;99.90
1447;DHT22;717;51.522;7.266;2024-03-07T06:37:37;10.50;99.90
1447;DHT22;717;51.522;7.266;2024-03-07T06:40:11;10.50;99.90
1447;DHT22;717;51.522;7.266;2024-03-07T06:42:48;10.50;99.90
1447;DHT22;717;51.522;7.266;2024-03-07T06:45:18;10.50;99.90
1447;DHT22;717;51.522;7.266;2024-03-07T06:47:51;10.50;99.90
1447;DHT22;717;51.522;7.266;2024-03-07T06:50:21;10.50;99.90
1447;DHT22;717;51.522;7.266;2024-03-07T06:53:04;10.50;99.90
1447;DHT22;717;51.522;7.266;2024-03-07T06:55:38;10.50;99.90
1447;DHT22;717;51.522;7.266;2024-03-07T06:58:08;10.50;99.90
1447;DHT22;717;51.522;7.266;2024-03-07T07:00:38;10.50;99.90
1447;DHT22;717;51.522;7.266;2024-03-07T07:03:08;10.40;99.90
1447;DHT22;717;51.522;7.266;2024-03-07T07:05:39;10.40;99.90
1447;DHT22;717;51.522;7.266;2024-03-07T07:08:12;10.50;99.90
1447;DHT22;717;51.522;7.266;2024-03-07T07:10:45;10.50;99.90
1447;DHT22;717;51.522;7.266;2024-03-07T07:13:16;10.50;99.90
1447;DHT22;717;51.522;7.266;2024-03-07T07:15:46;10.50;99.90
1447;DHT22;717;51.522;7.266;2024-03-07T07:18:16;10.40;99.90
1447;DHT22;717;51.522;7.266;2024-03-07T07:20:46;10.40;99.90
1447;DHT22;717;51.522;7.266;2024-03-07T07:23:19;10.40;99.90
1447;DHT22;717;51.522;7.266;2024-03-07T07:25:53;10.50;99.90
1447;DHT22;717;51.522;7.266;2024-03-07T07:28:23;10.40;99.90
1447;DHT22;717;51.522;7.266;2024-03-07T07:30:54;10.40;99.90
1447;DHT22;717;51.522;7.266;2024-03-07T07:33:24;10.40;99.90
1447;DHT22;717;51.522;7.266;2024-03-07T07:35:54;10.40;99.90
1447;DHT22;717;51.522;7.266;2024-03-07T07:38:24;10.40;99.90
1447;DHT22;717;51.522;7.266;2024-03-07T07:40:56;10.40;99.90
1447;DHT22;717;51.522;7.266;2024-03-07T07:43:28;10.40;99.90
1447;DHT22;717;51.522;7.266;2024-03-07T07:46:09;10.40;99.90
1447;DHT22;717;51.522;7.266;2024-03-07T07:48:39;10.40;99.90
1447;DHT22;717;51.522;7.266;2024-03-07T07:51:09;10.50;99.90
1447;DHT22;717;51.522;7.266;2024-03-07T07:53:40;10.50;99.90
1447;DHT22;717;51.522;7.266;2024-03-07T07:56:13;10.50;99.90
1447;DHT22;717;51.522;7.266;2024-03-07T07:58:43;10.50;99.90
1447;DHT22;717;51.522;7.266;2024-03-07T08:01:13;10.50;99.90
1447;DHT22;717;51.522;7.266;2024-03-07T08:03:44;10.50;99.90
1447;DHT22;717;51.522;7.266;2024-03-07T08:06:14;10.50;99.90
1447;DHT22;717;51.522;7.266;2024-03-07T08:08:44;10.50;99.90
1447;DHT22;717;51.522;7.266;2024-03-07T08:11:17;10.50;99.90
1447;DHT22;717;51.522;7.266;2024-03-07T08:13:47;10.50;99.90
1447;DHT22;717;51.522;7.266;2024-03-07T08:16:19;10.50;99.90
1447;DHT22;717;51.522;7.266;2024-03-07T08:18:51;10.60;99.90
1447;DHT22;717;51.522;7.266;2024-03-07T08:21:23;10.60;99.90
1447;DHT22;717;51.522;7.266;2024-03-07T08:23:53;10.60;99.90
1447;DHT22;717;51.522;7.266;2024-03-07T08:26:25;10.60;99.90
1447;DHT22;717;51.522;7.266;2024-03-07T08:28:55;10.70;99.90
1447;DHT22;717;51.522;7.266;2024-03-07T08:31:25;10.70;99.90
1447;DHT22;717;51.522;7.266;2024-03-07T08:33:55;10.70;99.90
1447;DHT22;717;51.522;7.266;2024-03-07T08:36:26;10.70;99.90
1447;DHT22;717;51.522;7.266;2024-03-07T08:38:56;10.70;99.90
1447;DHT22;717;51.522;7.266;2024-03-07T08:41:29;10.70;99.90
1447;DHT22;717;51.522;7.266;2024-03-07T08:44:04;10.70;99.90
1447;DHT22;717;51.522;7.266;2024-03-07T08:46:34;10.70;99.90
1447;DHT22;717;51.522;7.266;2024-03-07T08:49:04;10.70;99.90
1447;DHT22;717;51.522;7.266;2024-03-07T08:51:34;10.70;99.90
1447;DHT22;717;51.522;7.266;2024-03-07T08:54:04;10.80;99.90
1447;DHT22;717;51.522;7.266;2024-03-07T08:56:36;10.80;99.90
1447;DHT22;717;51.522;7.266;2024-03-07T08:59:07;10.80;99.90
1447;DHT22;717;51.522;7.266;2024-03-07T09:01:42;10.80;99.90
1447;DHT22;717;51.522;7.266;2024-03-07T09:04:13;10.90;99.90
1447;DHT22;717;51.522;7.266;2024-03-07T09:06:45;10.90;99.90
1447;DHT22;717;51.522;7.266;2024-03-07T09:09:15;10.90;99.90
1447;DHT22;717;51.522;7.266;2024-03-07T09:11:51;11.00;99.90
1447;DHT22;717;51.522;7.266;2024-03-07T09:14:22;11.00;99.90
1447;DHT22;717;51.522;7.266;2024-03-07T09:16:52;11.00;99.90
1447;DHT22;717;51.522;7.266;2024-03-07T09:19:22;11.00;99.90
1447;DHT22;717;51.522;7.266;2024-03-07T09:21:52;11.10;99.90
1447;DHT22;717;51.522;7.266;2024-03-07T09:24:22;11.10;99.90
1447;DHT22;717;51.522;7.266;2024-03-07T09:26:54;11.10;99.90
1447;DHT22;717;51.522;7.266;2024-03-07T09:29:25;11.20;99.90
1447;DHT22;717;51.522;7.266;2024-03-07T09:31:55;11.20;99.90
1447;DHT22;717;51.522;7.266;2024-03-07T09:34:25;11.30;99.90
1447;DHT22;717;51.522;7.266;2024-03-07T09:36:57;11.30;99.90
1447;DHT22;717;51.522;7.266;2024-03-07T09:39:28;11.30;99.90
1447;DHT22;717;51.522;7.266;2024-03-07T09:42:01;11.40;99.90
1447;DHT22;717;51.522;7.266;2024-03-07T09:44:31;11.40;99.90
1447;DHT22;717;51.522;7.266;2024-03-07T09:47:03;11.40;99.90
1447;DHT22;717;51.522;7.266;2024-03-07T09:49:33;11.50;99.90
1447;DHT22;717;51.522;7.266;2024-03-07T09:52:06;11.50;99.90
1447;DHT22;717;51.522;7.266;2024-03-07T09:54:38;11.50;99.90
1447;DHT22;717;51.522;7.266;2024-03-07T09:57:12;11.50;99.90
1447;DHT22;717;51.522;7.266;2024-03-07T09:59:43;11.50;99.90
1447;DHT22;717;51.522;7.266;2024-03-07T10:02:17;11.50;99.90
1447;DHT22;717;51.522;7.266;2024-03-07T10:04:48;11.60;99.90
1447;DHT22;717;51.522;7.266;2024-03-07T10:07:20;11.60;99.90
1447;DHT22;717;51.522;7.266;2024-03-07T10:09:53;11.70;99.90
1447;DHT22;717;51.522;7.266;2024-03-07T10:12:29;11.70;99.90
1447;DHT22;717;51.522;7.266;2024-03-07T10:15:03;11.70;99.90
1447;DHT22;717;51.522;7.266;2024-03-07T10:17:37;11.70;99.90
1447;DHT22;717;51.522;7.266;2024-03-07T10:20:12;11.70;99.90
1447;DHT22;717;51.522;7.266;2024-03-07T10:22:43;11.70;99.90
1447;DHT22;717;51.522;7.266;2024-03-07T10:25:13;11.80;99.90
1447;DHT22;717;51.522;7.266;2024-03-07T10:27:46;11.80;99.90
1447;DHT22;717;51.522;7.266;2024-03-07T10:30:18;11.80;99.90
1447;DHT22;717;51.522;7.266;2024-03-07T10:32:52;11.90;99.90
1447;DHT22;717;51.522;7.266;2024-03-07T10:35:27;11.90;99.90
1447;DHT22;717;51.522;7.266;2024-03-07T10:37:59;11.90;99.90
1447;DHT22;717;51.522;7.266;2024-03-07T10:40:34;11.90;99.90
1447;DHT22;717;51.522;7.266;2024-03-07T10:43:12;12.00;99.90
1447;DHT22;717;51.522;7.266;2024-03-07T10:45:45;12.00;99.90
1447;DHT22;717;51.522;7.266;2024-03-07T10:48:20;12.00;99.90
1447;DHT22;717;51.522;7.266;2024-03-07T10:50:58;12.00;99.90
1447;DHT22;717;51.522;7.266;2024-03-07T10:53:40;12.00;99.90
1447;DHT22;717;51.522;7.266;2024-03-07T10:56:23;12.10;99.90
1447;DHT22;717;51.522;7.266;2024-03-07T10:59:07;12.10;99.90
1447;DHT22;717;51.522;7.266;2024-03-07T11:01:46;12.20;99.90
1447;DHT22;717;51.522;7.266;2024-03-07T11:04:22;12.20;99.90
1447;DHT22;717;51.522;7.266;2024-03-07T11:06:53;12.30;99.90
1447;DHT22;717;51.522;7.266;2024-03-07T11:09:26;12.30;99.90
1447;DHT22;717;51.522;7.266;2024-03-07T11:12:01;12.40;99.90
1447;DHT22;717;51.522;7.266;2024-03-07T11:14:37;12.40;99.90
1447;DHT22;717;51.522;7.266;2024-03-07T11:17:05;12.40;99.90
1447;DHT22;717;51.522;7.266;2024-03-07T11:19:36;12.40;99.90
1447;DHT22;717;51.522;7.266;2024-03-07T11:22:06;12.50;99.90
1447;DHT22;717;51.522;7.266;2024-03-07T11:24:43;12.50;99.90
1447;DHT22;717;51.522;7.266;2024-03-07T11:27:14;12.50;99.90
1447;DHT22;717;51.522;7.266;2024-03-07T11:29:50;12.60;99.90
1447;DHT22;717;51.522;7.266;2024-03-07T11:32:23;12.60;99.90
1447;DHT22;717;51.522;7.266;2024-03-07T11:34:54;12.70;99.90
1447;DHT22;717;51.522;7.266;2024-03-07T11:37:38;12.70;99.90
1447;DHT22;717;51.522;7.266;2024-03-07T11:40:42;12.70;99.90
1447;DHT22;717;51.522;7.266;2024-03-07T11:43:13;12.70;99.90
1447;DHT22;717;51.522;7.266;2024-03-07T11:45:46;12.70;99.90
1447;DHT22;717;51.522;7.266;2024-03-07T11:48:19;12.80;99.90
1447;DHT22;717;51.522;7.266;2024-03-07T11:50:51;12.80;99.90
1447;DHT22;717;51.522;7.266;2024-03-07T11:53:22;12.80;99.90
1447;DHT22;717;51.522;7.266;2024-03-07T11:55:52;12.90;99.90
1447;DHT22;717;51.522;7.266;2024-03-07T11:58:22;12.90;99.90
1447;DHT22;717;51.522;7.266;2024-03-07T12:00:56;12.90;99.90
1447;DHT22;717;51.522;7.266;2024-03-07T12:03:26;13.00;99.90
1447;DHT22;717;51.522;7.266;2024-03-07T12:06:00;13.00;99.90
1447;DHT22;717;51.522;7.266;2024-03-07T12:08:32;13.10;99.90
1447;DHT22;717;51.522;7.266;2024-03-07T12:11:03;13.30;99.90
1447;DHT22;717;51.522;7.266;2024-03-07T12:13:34;13.40;99.90
1447;DHT22;717;51.522;7.266;2024-03-07T12:16:07;13.50;99.90
1447;DHT22;717;51.522;7.266;2024-03-07T12:18:38;13.60;99.90
1447;DHT22;717;51.522;7.266;2024-03-07T12:21:11;13.70;99.90
1447;DHT22;717;51.522;7.266;2024-03-07T12:23:42;13.90;99.90
1447;DHT22;717;51.522;7.266;2024-03-07T12:26:13;14.00;99.90
1447;DHT22;717;51.522;7.266;2024-03-07T12:28:53;14.10;99.90
1447;DHT22;717;51.522;7.266;2024-03-07T12:31:27;14.30;99.90
1447;DHT22;717;51.522;7.266;2024-03-07T12:33:58;14.30;99.90
1447;DHT22;717;51.522;7.266;2024-03-07T12:36:28;14.40;99.90
1447;DHT22;717;51.522;7.266;2024-03-07T12:39:01;14.50;99.90
1447;DHT22;717;51.522;7.266;2024-03-07T12:41:51;14.50;99.90
1447;DHT22;717;51.522;7.266;2024-03-07T12:44:22;14.50;99.90
1447;DHT22;717;51.522;7.266;2024-03-07T12:46:56;14.50;99.90
1447;DHT22;717;51.522;7.266;2024-03-07T12:49:26;14.50;99.90
1447;DHT22;717;51.522;7.266;2024-03-07T12:51:57;14.50;99.90
1447;DHT22;717;51.522;7.266;2024-03-07T12:54:27;14.50;99.90
1447;DHT22;717;51.522;7.266;2024-03-07T12:56:57;14.60;99.90
1447;DHT22;717;51.522;7.266;2024-03-07T12:59:27;14.70;99.90
1447;DHT22;717;51.522;7.266;2024-03-07T13:02:00;14.70;99.90
1447;DHT22;717;51.522;7.266;2024-03-07T13:04:30;14.70;99.90
1447;DHT22;717;51.522;7.266;2024-03-07T13:07:00;14.70;99.90
1447;DHT22;717;51.522;7.266;2024-03-07T13:09:31;14.80;99.90
1447;DHT22;717;51.522;7.266;2024-03-07T13:12:01;14.90;99.90
1447;DHT22;717;51.522;7.266;2024-03-07T13:14:37;14.90;99.90
1447;DHT22;717;51.522;7.266;2024-03-07T13:17:09;15.00;99.90
1447;DHT22;717;51.522;7.266;2024-03-07T13:19:41;15.00;99.90
1447;DHT22;717;51.522;7.266;2024-03-07T13:22:16;15.00;99.90
1447;DHT22;717;51.522;7.266;2024-03-07T13:24:46;15.00;99.90
1447;DHT22;717;51.522;7.266;2024-03-07T13:27:17;14.90;99.90
1447;DHT22;717;51.522;7.266;2024-03-07T13:29:55;14.80;99.90
1447;DHT22;717;51.522;7.266;2024-03-07T13:32:27;14.80;99.90
1447;DHT22;717;51.522;7.266;2024-03-07T13:34:57;14.80;99.90
1447;DHT22;717;51.522;7.266;2024-03-07T13:37:28;14.80;99.90
1447;DHT22;717;51.522;7.266;2024-03-07T13:40:01;14.80;99.90
1447;DHT22;717;51.522;7.266;2024-03-07T13:42:51;14.80;99.90
1447;DHT22;717;51.522;7.266;2024-03-07T13:45:23;14.80;99.90
1447;DHT22;717;51.522;7.266;2024-03-07T13:47:56;14.80;99.90
1447;DHT22;717;51.522;7.266;2024-03-07T13:50:28;14.80;99.90
1447;DHT22;717;51.522;7.266;2024-03-07T13:53:18;14.80;99.90
1447;DHT22;717;51.522;7.266;2024-03-07T13:59:20;14.70;99.90
1447;DHT22;717;51.522;7.266;2024-03-07T14:02:02;14.70;99.90
1447;DHT22;717;51.522;7.266;2024-03-07T14:05:11;14.80;99.90
1447;DHT22;717;51.522;7.266;2024-03-07T14:08:00;14.80;99.90
1447;DHT22;717;51.522;7.266;2024-03-07T14:11:09;14.80;99.90
1447;DHT22;717;51.522;7.266;2024-03-07T14:13:52;14.80;99.90
1447;DHT22;717;51.522;7.266;2024-03-07T14:16:52;14.70;99.90
1447;DHT22;717;51.522;7.266;2024-03-07T14:22:45;14.80;99.90
1447;DHT22;717;51.522;7.266;2024-03-07T14:25:37;14.70;99.90
1447;DHT22;717;51.522;7.266;2024-03-07T14:28:17;14.70;99.90
1447;DHT22;717;51.522;7.266;2024-03-07T14:30:57;14.70;99.90
1447;DHT22;717;51.522;7.266;2024-03-07T14:33:47;14.80;99.90
1447;DHT22;717;51.522;7.266;2024-03-07T14:36:17;14.80;99.90
1447;DHT22;717;51.522;7.266;2024-03-07T14:38:53;14.90;99.90
1447;DHT22;717;51.522;7.266;2024-03-07T14:41:42;14.90;99.90
1447;DHT22;717;51.522;7.266;2024-03-07T14:44:14;14.90;99.90
1447;DHT22;717;51.522;7.266;2024-03-07T14:46:47;15.00;99.90
1447;DHT22;717;51.522;7.266;2024-03-07T14:49:19;14.90;99.90
1447;DHT22;717;51.522;7.266;2024-03-07T14:51:50;14.90;99.90
1447;DHT22;717;51.522;7.266;2024-03-07T14:54:30;14.90;99.90
1447;DHT22;717;51.522;7.266;2024-03-07T14:57:00;14.90;99.90
1447;DHT22;717;51.522;7.266;2024-03-07T14:59:31;14.90;99.90
1447;DHT22;717;51.522;7.266;2024-03-07T15:02:01;14.80;99.90
1447;DHT22;717;51.522;7.266;2024-03-07T15:04:35;14.80;99.90
1447;DHT22;717;51.522;7.266;2024-03-07T15:07:06;14.80;99.90
1447;DHT22;717;51.522;7.266;2024-03-07T15:09:39;14.70;99.90
1447;DHT22;717;51.522;7.266;2024-03-07T15:12:09;14.70;99.90
1447;DHT22;717;51.522;7.266;2024-03-07T15:14:40;14.70;99.90
1447;DHT22;717;51.522;7.266;2024-03-07T15:17:13;14.70;99.90
1447;DHT22;717;51.522;7.266;2024-03-07T15:19:44;14.60;99.90
1447;DHT22;717;51.522;7.266;2024-03-07T15:22:15;14.60;99.90
1447;DHT22;717;51.522;7.266;2024-03-07T15:24:50;14.50;99.90
1447;DHT22;717;51.522;7.266;2024-03-07T15:27:20;14.60;99.90
1447;DHT22;717;51.522;7.266;2024-03-07T15:29:50;14.50;99.90
1447;DHT22;717;51.522;7.266;2024-03-07T15:32:41;14.50;99.90
1447;DHT22;717;51.522;7.266;2024-03-07T15:35:12;14.50;99.90
1447;DHT22;717;51.522;7.266;2024-03-07T15:37:44;14.40;99.90
1447;DHT22;717;51.522;7.266;2024-03-07T15:40:18;14.40;99.90
1447;DHT22;717;51.522;7.266;2024-03-07T15:42:51;14.40;99.90
1447;DHT22;717;51.522;7.266;2024-03-07T15:45:22;14.40;99.90
1447;DHT22;717;51.522;7.266;2024-03-07T15:47:54;14.40;99.90
1447;DHT22;717;51.522;7.266;2024-03-07T15:50:26;14.40;99.90
1447;DHT22;717;51.522;7.266;2024-03-07T15:52:57;14.40;99.90
1447;DHT22;717;51.522;7.266;2024-03-07T15:55:30;14.40;99.90
1447;DHT22;717;51.522;7.266;2024-03-07T15:58:02;14.40;99.90
1447;DHT22;717;51.522;7.266;2024-03-07T16:00:34;14.40;99.90
1447;DHT22;717;51.522;7.266;2024-03-07T16:03:06;14.40;99.90
1447;DHT22;717;51.522;7.266;2024-03-07T16:05:39;14.40;99.90
1447;DHT22;717;51.522;7.266;2024-03-07T16:08:14;14.40;99.90
1447;DHT22;717;51.522;7.266;2024-03-07T16:10:48;14.30;99.90
1447;DHT22;717;51.522;7.266;2024-03-07T16:13:20;14.40;99.90
1447;DHT22;717;51.522;7.266;2024-03-07T16:15:51;14.40;99.90
1447;DHT22;717;51.522;7.266;2024-03-07T16:18:21;14.40;99.90
1447;DHT22;717;51.522;7.266;2024-03-07T16:20:53;14.40;99.90
1447;DHT22;717;51.522;7.266;2024-03-07T16:23:24;14.30;99.90
1447;DHT22;717;51.522;7.266;2024-03-07T16:25:57;14.40;99.90
1447;DHT22;717;51.522;7.266;2024-03-07T16:28:31;14.40;99.90
1447;DHT22;717;51.522;7.266;2024-03-07T16:31:01;14.30;99.90
1447;DHT22;717;51.522;7.266;2024-03-07T16:33:35;14.30;99.90
1447;DHT22;717;51.522;7.266;2024-03-07T16:36:06;14.30;99.90
1447;DHT22;717;51.522;7.266;2024-03-07T16:38:36;14.30;99.90
1447;DHT22;717;51.522;7.266;2024-03-07T16:41:08;14.20;99.90
1447;DHT22;717;51.522;7.266;2024-03-07T16:43:39;14.20;99.90
1447;DHT22;717;51.522;7.266;2024-03-07T16:46:09;14.20;99.90
1447;DHT22;717;51.522;7.266;2024-03-07T16:48:39;14.20;99.90
1447;DHT22;717;51.522;7.266;2024-03-07T16:51:10;14.20;99.90
1447;DHT22;717;51.522;7.266;2024-03-07T16:53:40;14.20;99.90
1447;DHT22;717;51.522;7.266;2024-03-07T16:56:14;14.20;99.90
1447;DHT22;717;51.522;7.266;2024-03-07T16:58:44;14.20;99.90